createdAt,value
2023-01-09T00:01:15.996Z,11.14
2023-01-09T00:03:44.369Z,11.46
2023-01-09T00:06:12.404Z,10.93
2023-01-09T00:08:40.361Z,11.02
2023-01-09T00:11:08.635Z,11.38
2023-01-09T00:13:36.721Z,11.24
2023-01-09T00:16:06.343Z,11.26
2023-01-09T00:18:34.325Z,10.97
2023-01-09T00:21:03.328Z,10.99
2023-01-09T00:23:31.027Z,11.22
2023-01-09T00:26:11.439Z,11.31
2023-01-09T00:28:39.714Z,11.10
2023-01-09T00:31:09.222Z,11.52
2023-01-09T00:33:41.862Z,11.87
2023-01-09T00:36:10.569Z,11.59
2023-01-09T00:38:39.970Z,11.34
2023-01-09T00:41:11.511Z,11.59
2023-01-09T00:43:45.711Z,11.60
2023-01-09T00:46:15.033Z,11.50
2023-01-09T00:48:45.150Z,11.44
2023-01-09T00:51:12.819Z,11.23
2023-01-09T00:53:43.228Z,10.88
2023-01-09T00:56:14.884Z,11.10
2023-01-09T00:58:42.720Z,11.32
2023-01-09T01:01:10.532Z,11.32
2023-01-09T01:03:38.321Z,11.55
2023-01-09T01:06:23.728Z,11.54
2023-01-09T01:08:51.427Z,11.08
2023-01-09T01:11:19.177Z,11.47
2023-01-09T01:13:46.838Z,11.56
2023-01-09T01:16:14.644Z,11.72
2023-01-09T01:18:42.688Z,11.12
2023-01-09T01:21:12.877Z,11.45
2023-01-09T01:23:40.887Z,11.51
2023-01-09T01:26:13.884Z,11.61
2023-01-09T01:28:42.341Z,11.55
2023-01-09T01:31:10.435Z,11.59
2023-01-09T01:33:38.123Z,11.42
2023-01-09T01:36:10.161Z,11.42
2023-01-09T01:38:38.651Z,11.45
2023-01-09T01:41:07.074Z,11.48
2023-01-09T01:43:56.100Z,11.56
2023-01-09T01:46:24.195Z,11.54
2023-01-09T01:49:00.608Z,11.56
2023-01-09T01:51:31.524Z,11.31
2023-01-09T01:54:03.495Z,11.53
2023-01-09T01:56:39.003Z,11.70
2023-01-09T01:59:09.767Z,11.48
2023-01-09T02:01:41.364Z,11.46
2023-01-09T02:04:09.663Z,11.67
2023-01-09T02:06:38.948Z,11.70
2023-01-09T02:09:08.042Z,11.42
2023-01-09T02:11:36.160Z,11.29
2023-01-09T02:14:04.294Z,11.47
2023-01-09T02:16:51.965Z,11.52
2023-01-09T02:20:01.642Z,11.58
2023-01-09T02:22:45.926Z,11.60
2023-01-09T02:25:13.578Z,11.34
2023-01-09T02:27:59.904Z,11.29
2023-01-09T02:30:43.885Z,11.19
2023-01-09T02:33:42.417Z,11.58
2023-01-09T02:36:34.497Z,11.61
2023-01-09T02:39:27.182Z,11.59
2023-01-09T02:42:02.095Z,11.30
2023-01-09T02:44:31.931Z,11.18
2023-01-09T02:47:18.531Z,11.11
2023-01-09T02:49:56.253Z,11.23
2023-01-09T02:52:26.724Z,11.13
2023-01-09T02:55:19.156Z,11.24
2023-01-09T02:58:11.547Z,11.09
2023-01-09T03:00:59.154Z,10.99
2023-01-09T03:03:50.133Z,11.16
2023-01-09T03:06:48.508Z,11.27
2023-01-09T03:09:23.888Z,11.28
2023-01-09T03:11:57.771Z,10.91
2023-01-09T03:14:27.384Z,11.08
2023-01-09T03:16:59.967Z,11.18
2023-01-09T03:19:31.735Z,11.38
2023-01-09T03:22:00.910Z,11.40
2023-01-09T03:24:28.608Z,11.50
2023-01-09T03:26:56.352Z,11.28
2023-01-09T03:29:24.055Z,10.92
2023-01-09T03:31:51.791Z,11.32
2023-01-09T03:34:19.514Z,11.64
2023-01-09T03:36:47.169Z,11.70
2023-01-09T03:39:14.800Z,11.55
2023-01-09T03:41:42.449Z,11.41
2023-01-09T03:44:10.117Z,10.96
2023-01-09T03:46:37.768Z,10.85
2023-01-09T03:49:05.400Z,11.18
2023-01-09T03:51:33.098Z,11.03
2023-01-09T03:54:00.753Z,11.22
2023-01-09T03:56:28.458Z,10.99
2023-01-09T03:58:56.144Z,11.07
2023-01-09T04:01:23.878Z,11.28
2023-01-09T04:03:51.736Z,11.30
2023-01-09T04:06:19.444Z,11.31
2023-01-09T04:08:47.085Z,11.25
2023-01-09T04:11:14.763Z,11.29
2023-01-09T04:13:42.469Z,11.55
2023-01-09T04:16:10.128Z,11.28
2023-01-09T04:18:37.834Z,11.07
2023-01-09T04:21:05.857Z,11.28
2023-01-09T04:23:33.554Z,11.55
2023-01-09T04:26:01.224Z,11.48
2023-01-09T04:28:28.889Z,11.56
2023-01-09T04:30:56.542Z,11.26
2023-01-09T04:33:24.184Z,11.05
2023-01-09T04:35:51.873Z,11.00
2023-01-09T04:38:20.033Z,11.07
2023-01-09T04:40:50.966Z,11.59
2023-01-09T04:43:18.673Z,11.41
2023-01-09T04:45:46.506Z,11.35
2023-01-09T04:48:14.188Z,11.37
2023-01-09T04:50:41.897Z,11.29
2023-01-09T04:53:09.781Z,11.25
2023-01-09T04:55:37.392Z,11.20
2023-01-09T04:58:05.275Z,11.08
2023-01-09T05:00:33.005Z,11.33
2023-01-09T05:03:02.840Z,11.10
2023-01-09T05:05:30.529Z,11.14
2023-01-09T05:07:58.275Z,11.04
2023-01-09T05:10:25.901Z,11.35
2023-01-09T05:12:53.645Z,11.18
2023-01-09T05:15:21.724Z,11.39
2023-01-09T05:17:49.420Z,11.28
2023-01-09T05:20:17.136Z,10.54
2023-01-09T05:22:44.852Z,10.83
2023-01-09T05:25:12.532Z,10.82
2023-01-09T05:27:40.267Z,11.03
2023-01-09T05:30:08.579Z,11.24
2023-01-09T05:32:36.293Z,11.60
2023-01-09T05:35:04.053Z,11.29
2023-01-09T05:37:31.742Z,11.38
2023-01-09T05:39:59.406Z,11.12
2023-01-09T05:42:27.089Z,11.32
2023-01-09T05:44:54.783Z,10.81
2023-01-09T05:47:22.440Z,10.64
2023-01-09T05:49:50.090Z,10.93
2023-01-09T05:52:17.693Z,11.51
2023-01-09T05:54:45.356Z,11.44
2023-01-09T05:57:12.995Z,11.44
2023-01-09T05:59:40.655Z,11.68
2023-01-09T06:02:08.442Z,11.47
2023-01-09T06:04:36.464Z,11.42
2023-01-09T06:07:04.342Z,11.66
2023-01-09T06:09:32.352Z,11.73
2023-01-09T06:12:00.005Z,10.97
2023-01-09T06:14:27.657Z,11.36
2023-01-09T06:16:55.391Z,11.46
2023-01-09T06:19:23.116Z,11.47
2023-01-09T06:21:50.821Z,11.40
2023-01-09T06:24:18.432Z,11.47
2023-01-09T06:26:46.199Z,11.54
2023-01-09T06:29:13.823Z,11.68
2023-01-09T06:31:41.507Z,11.68
2023-01-09T06:34:09.262Z,11.54
2023-01-09T06:36:36.897Z,11.25
2023-01-09T06:39:04.717Z,11.46
2023-01-09T06:41:32.346Z,11.48
2023-01-09T06:44:00.030Z,11.36
2023-01-09T06:46:27.773Z,11.56
2023-01-09T06:48:55.436Z,11.45
2023-01-09T06:51:23.066Z,11.64
2023-01-09T06:53:50.773Z,11.75
2023-01-09T06:56:20.063Z,11.93
2023-01-09T06:58:47.789Z,11.62
2023-01-09T07:01:15.630Z,11.68
2023-01-09T07:03:43.752Z,11.46
2023-01-09T07:06:11.421Z,11.48
2023-01-09T07:08:39.113Z,11.40
2023-01-09T07:11:06.940Z,11.52
2023-01-09T07:13:34.611Z,10.97
2023-01-09T07:16:03.301Z,11.16
2023-01-09T07:18:31.044Z,11.09
2023-01-09T07:20:58.728Z,10.52
2023-01-09T07:23:26.491Z,10.98
2023-01-09T07:25:54.772Z,11.61
2023-01-09T07:28:22.400Z,11.68
2023-01-09T07:30:50.120Z,11.77
2023-01-09T07:33:17.920Z,11.67
2023-01-09T07:35:45.566Z,11.78
2023-01-09T07:38:13.166Z,11.94
2023-01-09T07:40:40.852Z,11.74
2023-01-09T07:43:08.577Z,12.01
2023-01-09T07:45:36.296Z,12.09
2023-01-09T07:48:04.024Z,11.99
2023-01-09T07:50:31.681Z,12.17
2023-01-09T07:52:59.496Z,12.00
2023-01-09T07:55:27.212Z,11.47
2023-01-09T07:57:54.847Z,11.35
2023-01-09T08:00:22.814Z,11.58
2023-01-09T08:02:54.348Z,11.83
2023-01-09T08:05:22.820Z,12.26
2023-01-09T08:07:51.383Z,12.44
2023-01-09T08:10:20.195Z,12.31
2023-01-09T08:12:49.217Z,9.36
2023-01-09T08:15:17.761Z,8.26
2023-01-09T08:17:47.616Z,8.01
2023-01-09T08:20:17.542Z,8.21
2023-01-09T08:22:50.683Z,8.04
2023-01-09T08:25:19.095Z,8.04
2023-01-09T08:27:47.091Z,7.98
2023-01-09T08:30:15.668Z,8.13
2023-01-09T08:32:43.799Z,8.18
2023-01-09T08:35:11.636Z,8.11
2023-01-09T08:37:39.302Z,8.11
2023-01-09T08:40:07.454Z,8.15
2023-01-09T08:42:52.422Z,8.21
2023-01-09T08:45:37.862Z,8.08
2023-01-09T08:48:05.795Z,8.23
2023-01-09T08:50:33.489Z,8.25
2023-01-09T08:53:01.170Z,8.21
2023-01-09T08:55:29.008Z,8.32
2023-01-09T08:57:58.103Z,8.34
2023-01-09T09:00:26.301Z,8.38
2023-01-09T09:03:01.115Z,8.37
2023-01-09T09:05:30.965Z,8.42
2023-01-09T09:07:59.998Z,8.44
2023-01-09T09:10:29.737Z,8.51
2023-01-09T09:12:59.323Z,8.49
2023-01-09T09:15:30.582Z,8.46
2023-01-09T09:18:03.562Z,8.63
2023-01-09T09:20:33.232Z,8.65
2023-01-09T09:23:00.876Z,8.59
2023-01-09T09:25:28.741Z,8.58
2023-01-09T09:27:56.923Z,8.51
2023-01-09T09:30:25.593Z,8.50
2023-01-09T09:32:53.244Z,8.59
2023-01-09T09:35:22.636Z,8.67
2023-01-09T09:38:04.807Z,8.70
2023-01-09T09:41:05.476Z,8.78
2023-01-09T09:44:19.803Z,8.70
2023-01-09T09:46:59.153Z,8.77
2023-01-09T09:49:46.085Z,8.73
2023-01-09T09:52:37.074Z,8.73
2023-01-09T09:55:18.502Z,8.77
2023-01-09T09:57:47.787Z,8.65
2023-01-09T10:00:25.005Z,8.81
2023-01-09T10:03:11.345Z,8.77
2023-01-09T10:05:43.264Z,8.73
2023-01-09T10:08:25.235Z,8.78
2023-01-09T10:10:55.375Z,8.76
2023-01-09T10:13:43.477Z,8.74
2023-01-09T10:16:37.328Z,8.81
2023-01-09T10:19:29.956Z,8.94
2023-01-09T10:22:31.731Z,8.91
2023-01-09T10:25:26.713Z,8.86
2023-01-09T10:28:08.305Z,8.86
2023-01-09T10:30:43.152Z,8.88
2023-01-09T10:33:35.519Z,8.88
2023-01-09T10:36:12.617Z,8.93
2023-01-09T10:38:44.417Z,8.88
2023-01-09T10:41:16.279Z,8.85
2023-01-09T10:43:51.986Z,8.82
2023-01-09T10:46:26.240Z,8.90
2023-01-09T10:48:59.894Z,8.85
2023-01-09T10:51:45.051Z,8.77
2023-01-09T10:54:18.453Z,8.86
2023-01-09T10:56:54.818Z,8.91
2023-01-09T10:59:23.106Z,8.94
2023-01-09T11:01:51.114Z,8.82
2023-01-09T11:04:21.367Z,8.83
2023-01-09T11:06:53.877Z,8.86
2023-01-09T11:09:21.541Z,8.90
2023-01-09T11:11:50.892Z,8.92
2023-01-09T11:14:27.749Z,8.88
2023-01-09T11:17:05.056Z,8.85
2023-01-09T11:19:34.058Z,8.92
2023-01-09T11:22:17.820Z,9.00
2023-01-09T11:24:46.313Z,9.02
2023-01-09T11:27:13.943Z,8.99
2023-01-09T11:29:42.677Z,9.09
2023-01-09T11:32:25.440Z,9.00
2023-01-09T11:34:53.260Z,9.03
2023-01-09T11:37:27.614Z,8.90
2023-01-09T11:39:58.712Z,8.91
2023-01-09T11:42:43.159Z,8.87
2023-01-09T11:45:21.143Z,8.91
2023-01-09T11:47:48.932Z,8.77
2023-01-09T11:50:22.339Z,8.94
2023-01-09T11:53:19.205Z,8.88
2023-01-09T11:55:51.161Z,9.04
2023-01-09T11:58:22.951Z,9.21
2023-01-09T12:00:54.294Z,9.31
2023-01-09T12:03:43.720Z,9.19
2023-01-09T12:06:42.875Z,9.16
2023-01-09T12:09:25.197Z,9.15
2023-01-09T12:12:05.745Z,9.23
2023-01-09T12:15:18.092Z,9.20
2023-01-09T12:18:23.665Z,9.12
2023-01-09T12:21:18.052Z,9.16
2023-01-09T12:23:55.394Z,9.17
2023-01-09T12:26:47.923Z,9.25
2023-01-09T12:29:53.262Z,9.32
2023-01-09T12:32:36.179Z,9.36
2023-01-09T12:35:18.522Z,9.31
2023-01-09T12:37:49.123Z,9.37
2023-01-09T12:40:16.799Z,9.34
2023-01-09T12:43:12.423Z,9.25
2023-01-09T12:46:14.780Z,9.28
2023-01-09T12:48:54.459Z,9.25
2023-01-09T12:51:41.667Z,9.20
2023-01-09T12:54:27.723Z,9.21
2023-01-09T12:57:02.258Z,9.10
2023-01-09T12:59:41.216Z,9.21
2023-01-09T13:02:32.709Z,9.10
2023-01-09T13:05:07.939Z,9.22
2023-01-09T13:07:43.348Z,9.20
2023-01-09T13:10:33.951Z,9.18
2023-01-09T13:13:07.096Z,8.94
2023-01-09T13:15:42.477Z,9.15
2023-01-09T13:18:26.508Z,9.15
2023-01-09T13:20:56.726Z,9.14
2023-01-09T13:23:56.309Z,9.11
2023-01-09T13:26:30.352Z,8.91
2023-01-09T13:29:10.265Z,8.96
2023-01-09T13:31:53.643Z,8.99
2023-01-09T13:34:25.264Z,9.01
2023-01-09T13:36:56.735Z,9.01
2023-01-09T13:39:28.861Z,8.88
2023-01-09T13:42:19.617Z,8.96
2023-01-09T13:44:49.559Z,8.85
2023-01-09T13:47:24.326Z,8.70
2023-01-09T13:49:52.001Z,8.89
2023-01-09T13:52:25.593Z,8.90
2023-01-09T13:54:56.011Z,8.79
2023-01-09T13:57:29.849Z,8.78
2023-01-09T14:00:20.338Z,8.75
2023-01-09T14:02:48.975Z,8.81
2023-01-09T14:05:37.829Z,8.79
2023-01-09T14:08:12.524Z,8.73
2023-01-09T14:11:07.561Z,8.67
2023-01-09T14:13:39.763Z,8.44
2023-01-09T14:16:28.099Z,8.64
2023-01-09T14:19:27.771Z,8.65
2023-01-09T14:21:58.293Z,8.63
2023-01-09T14:24:28.168Z,8.67
2023-01-09T14:26:59.071Z,8.68
2023-01-09T14:29:29.892Z,8.66
2023-01-09T14:32:28.097Z,8.67
2023-01-09T14:35:12.861Z,8.64
2023-01-09T14:37:41.849Z,8.58
2023-01-09T14:40:20.432Z,8.48
2023-01-09T14:42:52.842Z,8.36
2023-01-09T14:45:26.839Z,8.26
2023-01-09T14:48:01.732Z,8.13
2023-01-09T14:50:33.008Z,8.11
2023-01-09T14:53:21.536Z,8.19
2023-01-09T14:56:06.268Z,8.07
2023-01-09T14:58:38.099Z,8.07
2023-01-09T15:01:14.863Z,7.99
2023-01-09T15:03:45.266Z,7.83
2023-01-09T15:06:42.673Z,7.93
2023-01-09T15:09:19.469Z,7.88
2023-01-09T15:11:47.935Z,7.80
2023-01-09T15:14:45.949Z,7.84
2023-01-09T15:17:33.431Z,7.77
2023-01-09T15:20:04.651Z,7.80
2023-01-09T15:22:37.657Z,7.77
2023-01-09T15:25:40.615Z,7.77
2023-01-09T15:28:28.287Z,7.75
2023-01-09T15:31:04.587Z,7.66
2023-01-09T15:33:33.754Z,7.56
2023-01-09T15:36:14.947Z,7.51
2023-01-09T15:38:44.124Z,7.52
2023-01-09T15:41:35.648Z,7.35
2023-01-09T15:44:05.392Z,7.30
2023-01-09T15:46:33.739Z,7.02
2023-01-09T15:49:01.626Z,7.31
2023-01-09T15:51:29.784Z,7.22
2023-01-09T15:54:00.692Z,7.23
2023-01-09T15:56:30.763Z,7.19
2023-01-09T15:59:02.116Z,7.19
2023-01-09T16:01:33.840Z,7.20
2023-01-09T16:04:10.559Z,7.12
2023-01-09T16:06:45.382Z,7.11
2023-01-09T16:09:18.951Z,6.91
2023-01-09T16:11:49.205Z,6.93
2023-01-09T16:14:23.143Z,6.92
2023-01-09T16:16:53.118Z,6.93
2023-01-09T16:19:42.266Z,6.89
2023-01-09T16:22:22.058Z,6.84
2023-01-09T16:24:53.516Z,6.84
2023-01-09T16:27:30.601Z,6.84
2023-01-09T16:30:27.800Z,6.81
2023-01-09T16:32:55.492Z,6.82
2023-01-09T16:35:26.527Z,6.78
2023-01-09T16:37:54.201Z,6.86
2023-01-09T16:40:27.244Z,6.68
2023-01-09T16:43:05.560Z,6.70
2023-01-09T16:45:44.745Z,6.72
2023-01-09T16:48:14.657Z,6.63
2023-01-09T16:50:44.134Z,6.69
2023-01-09T16:53:24.114Z,6.51
2023-01-09T16:55:54.139Z,6.54
2023-01-09T16:58:33.371Z,6.63
2023-01-09T17:01:01.063Z,6.54
2023-01-09T17:03:28.810Z,6.47
2023-01-09T17:05:58.005Z,6.45
2023-01-09T17:08:26.930Z,6.46
2023-01-09T17:10:56.492Z,6.43
2023-01-09T17:13:25.420Z,6.28
2023-01-09T17:15:54.877Z,6.30
2023-01-09T17:18:24.879Z,6.32
2023-01-09T17:20:54.845Z,6.36
2023-01-09T17:23:25.696Z,6.42
2023-01-09T17:26:15.284Z,6.34
2023-01-09T17:28:51.445Z,6.30
2023-01-09T17:31:19.596Z,6.16
2023-01-09T17:33:47.355Z,6.19
2023-01-09T17:36:34.638Z,6.07
2023-01-09T17:39:03.059Z,6.18
2023-01-09T17:41:32.620Z,6.29
2023-01-09T17:44:01.198Z,6.21
2023-01-09T17:46:37.238Z,6.09
2023-01-09T17:49:06.692Z,6.15
2023-01-09T17:51:34.662Z,6.16
2023-01-09T17:54:02.344Z,6.15
2023-01-09T17:56:34.330Z,5.98
2023-01-09T17:59:02.029Z,5.98
2023-01-09T18:01:29.688Z,6.04
2023-01-09T18:03:57.383Z,6.01
2023-01-09T18:06:25.091Z,6.00
2023-01-09T18:08:52.912Z,6.00
2023-01-09T18:11:22.455Z,6.00
2023-01-09T18:13:53.620Z,5.65
2023-01-09T18:16:25.006Z,5.93
2023-01-09T18:18:55.611Z,5.94
2023-01-09T18:21:25.241Z,6.05
2023-01-09T18:23:53.097Z,5.91
2023-01-09T18:26:21.627Z,6.03
2023-01-09T18:28:52.331Z,5.75
2023-01-09T18:31:22.834Z,5.92
2023-01-09T18:33:53.325Z,5.95
2023-01-09T18:36:23.363Z,5.94
2023-01-09T18:38:53.274Z,5.96
2023-01-09T18:41:21.671Z,5.94
2023-01-09T18:43:57.798Z,5.98
2023-01-09T18:46:26.216Z,5.88
2023-01-09T18:49:02.680Z,5.70
2023-01-09T18:51:31.066Z,5.78
2023-01-09T18:53:58.846Z,5.91
2023-01-09T18:56:26.563Z,5.75
2023-01-09T18:58:58.654Z,5.71
2023-01-09T19:01:28.297Z,5.77
2023-01-09T19:03:57.145Z,5.87
2023-01-09T19:06:25.295Z,5.82
2023-01-09T19:08:53.197Z,5.85
2023-01-09T19:11:20.849Z,5.82
2023-01-09T19:13:50.553Z,5.76
2023-01-09T19:16:19.102Z,5.65
2023-01-09T19:18:46.926Z,5.72
2023-01-09T19:21:20.705Z,5.76
2023-01-09T19:23:49.483Z,5.61
2023-01-09T19:26:23.742Z,5.63
2023-01-09T19:28:55.104Z,5.57
2023-01-09T19:31:24.664Z,5.56
2023-01-09T19:33:53.209Z,5.48
2023-01-09T19:36:22.015Z,5.45
2023-01-09T19:38:49.869Z,5.60
2023-01-09T19:41:19.937Z,5.60
2023-01-09T19:43:48.850Z,5.55
2023-01-09T19:46:19.659Z,5.47
2023-01-09T19:48:48.676Z,5.21
2023-01-09T19:51:18.610Z,5.41
2023-01-09T19:53:51.359Z,5.31
2023-01-09T19:56:21.458Z,5.27
2023-01-09T19:58:54.783Z,5.22
2023-01-09T20:01:27.924Z,5.32
2023-01-09T20:03:57.830Z,5.28
2023-01-09T20:06:27.632Z,5.10
2023-01-09T20:08:57.280Z,5.32
2023-01-09T20:11:28.095Z,5.21
2023-01-09T20:13:56.577Z,5.19
2023-01-09T20:16:28.249Z,5.26
2023-01-09T20:18:57.968Z,5.32
2023-01-09T20:21:26.843Z,5.13
2023-01-09T20:23:56.874Z,5.10
2023-01-09T20:26:25.940Z,5.14
2023-01-09T20:28:54.235Z,5.15
2023-01-09T20:31:23.868Z,5.04
2023-01-09T20:33:52.092Z,5.00
2023-01-09T20:36:21.676Z,5.08
2023-01-09T20:38:49.677Z,5.05
2023-01-09T20:41:23.519Z,4.96
2023-01-09T20:43:53.405Z,4.90
2023-01-09T20:46:24.704Z,4.92
2023-01-09T20:48:52.374Z,4.75
2023-01-09T20:51:20.038Z,4.87
2023-01-09T20:53:55.528Z,4.88
2023-01-09T20:56:28.198Z,4.97
2023-01-09T20:58:56.943Z,4.86
2023-01-09T21:01:25.652Z,4.90
2023-01-09T21:03:54.755Z,4.87
2023-01-09T21:06:24.869Z,4.86
2023-01-09T21:08:53.164Z,4.62
2023-01-09T21:11:21.973Z,4.95
2023-01-09T21:13:50.421Z,4.93
2023-01-09T21:16:21.500Z,4.85
2023-01-09T21:18:50.443Z,4.56
2023-01-09T21:21:21.860Z,4.87
2023-01-09T21:23:51.854Z,4.91
2023-01-09T21:26:22.454Z,4.88
2023-01-09T21:28:51.626Z,4.87
2023-01-09T21:31:21.996Z,4.87
2023-01-09T21:33:50.032Z,4.75
2023-01-09T21:36:17.782Z,4.74
2023-01-09T21:38:46.824Z,4.88
2023-01-09T21:41:35.450Z,4.85
2023-01-09T21:44:22.702Z,4.88
2023-01-09T21:46:55.670Z,4.68
2023-01-09T21:49:25.655Z,4.83
2023-01-09T21:51:56.415Z,4.72
2023-01-09T21:54:24.979Z,4.66
2023-01-09T21:56:53.335Z,4.71
2023-01-09T21:59:21.032Z,4.71
2023-01-09T22:01:50.400Z,4.69
2023-01-09T22:04:20.517Z,4.77
2023-01-09T22:06:48.209Z,4.75
2023-01-09T22:09:16.873Z,4.61
2023-01-09T22:11:44.843Z,4.53
2023-01-09T22:14:15.003Z,4.68
2023-01-09T22:16:44.293Z,4.67
2023-01-09T22:19:13.080Z,4.64
2023-01-09T22:21:40.868Z,4.50
2023-01-09T22:24:09.029Z,4.74
2023-01-09T22:26:36.650Z,4.61
2023-01-09T22:29:04.392Z,4.63
2023-01-09T22:31:32.971Z,4.70
2023-01-09T22:34:02.337Z,4.52
2023-01-09T22:36:31.777Z,4.67
2023-01-09T22:39:00.859Z,4.71
2023-01-09T22:41:30.441Z,4.64
2023-01-09T22:43:58.487Z,4.61
2023-01-09T22:46:26.399Z,4.60
2023-01-09T22:48:54.285Z,4.54
2023-01-09T22:51:23.016Z,4.44
2023-01-09T22:53:51.897Z,4.51
2023-01-09T22:56:21.637Z,4.63
2023-01-09T22:58:54.148Z,4.68
2023-01-09T23:01:22.981Z,4.75
2023-01-09T23:03:50.842Z,4.68
2023-01-09T23:06:20.765Z,4.79
2023-01-09T23:08:50.266Z,4.77
2023-01-09T23:11:42.093Z,4.78
2023-01-09T23:14:10.390Z,4.75
2023-01-09T23:16:38.469Z,4.66
2023-01-09T23:19:09.812Z,4.62
2023-01-09T23:21:37.948Z,4.75
2023-01-09T23:24:07.351Z,4.64
2023-01-09T23:26:35.920Z,4.56
2023-01-09T23:29:06.996Z,4.66
2023-01-09T23:31:35.492Z,4.67
2023-01-09T23:34:04.691Z,4.72
2023-01-09T23:36:32.429Z,4.70
2023-01-09T23:39:00.369Z,4.78
2023-01-09T23:41:47.999Z,4.75
2023-01-09T23:44:14.686Z,4.71
2023-01-09T23:46:42.339Z,4.60
2023-01-09T23:49:10.411Z,4.55
2023-01-09T23:51:38.063Z,4.69
2023-01-09T23:54:05.954Z,4.73
2023-01-09T23:56:34.590Z,4.65
2023-01-09T23:59:03.053Z,4.58
